Time;durP1;ratioP1;P1;durP2;ratioP2;P2;SDS_P1;SDS_P2;PMS_P1;PMS_P2;Temp;Humidity;BMP_temperature;BMP_pressure;BME280_temperature;BME280_humidity;BME280_pressure;Samples;Min_cycle;Max_cycle;Signal;HPM_P1;HPM_P2
2023/03/07 00:00:11;;;;;;;1.58;0.20;;;19.30;58.80;;;;;;5049058;28;20049;-76
2023/03/07 00:02:38;;;;;;;1.00;0.20;;;19.30;58.10;;;;;;5041630;28;20053;-75
2023/03/07 00:05:07;;;;;;;1.58;0.43;;;19.30;58.20;;;;;;5030433;28;20057;-75
2023/03/07 00:07:34;;;;;;;0.88;0.20;;;19.30;58.20;;;;;;5030146;28;20046;-75
2023/03/07 00:10:01;;;;;;;1.73;0.60;;;19.30;58.30;;;;;;5030098;28;20042;-76
2023/03/07 00:12:28;;;;;;;1.60;0.40;;;19.20;58.40;;;;;;5028472;28;20067;-75
2023/03/07 00:14:57;;;;;;;1.15;0.35;;;19.20;58.40;;;;;;5030470;28;20056;-75
2023/03/07 00:17:24;;;;;;;1.88;0.35;;;19.20;58.50;;;;;;5041322;28;20052;-75
2023/03/07 00:19:50;;;;;;;1.50;0.40;;;19.10;58.50;;;;;;5048712;28;20076;-76
2023/03/07 00:22:17;;;;;;;1.40;0.35;;;19.10;58.50;;;;;;5049815;28;20518;-75
2023/03/07 00:24:44;;;;;;;1.15;0.28;;;19.00;58.50;;;;;;5049696;28;20521;-75
2023/03/07 00:27:11;;;;;;;1.42;0.47;;;19.00;58.50;;;;;;5049855;28;20513;-75
2023/03/07 00:29:38;;;;;;;1.40;0.45;;;19.00;58.50;;;;;;5050612;28;20053;-75
2023/03/07 00:32:07;;;;;;;0.93;0.40;;;19.00;58.60;;;;;;5048581;28;20052;-75
2023/03/07 00:34:34;;;;;;;1.00;0.30;;;18.90;58.50;;;;;;5050440;28;20053;-75
2023/03/07 00:37:01;;;;;;;1.50;0.40;;;18.90;58.60;;;;;;5050991;28;20045;-75
2023/03/07 00:39:28;;;;;;;1.20;0.30;;;18.80;58.60;;;;;;5050562;28;20052;-75
2023/03/07 00:41:55;;;;;;;1.40;0.32;;;18.80;58.70;;;;;;5031257;28;20103;-75
2023/03/07 00:44:24;;;;;;;1.42;0.30;;;18.80;58.70;;;;;;5029680;28;20045;-75
2023/03/07 00:46:51;;;;;;;0.88;0.38;;;18.70;58.70;;;;;;5033692;28;20124;-75
2023/03/07 00:49:20;;;;;;;1.10;0.30;;;18.70;58.80;;;;;;5048345;28;20049;-75
2023/03/07 00:51:46;;;;;;;1.40;0.30;;;18.70;58.80;;;;;;5033727;28;20144;-75
2023/03/07 00:54:13;;;;;;;1.20;0.20;;;18.70;58.80;;;;;;5029960;28;20130;-75
2023/03/07 00:56:40;;;;;;;0.90;0.40;;;18.60;58.80;;;;;;5029442;28;20048;-75
2023/03/07 00:59:09;;;;;;;0.98;0.30;;;18.60;58.90;;;;;;5028581;28;20045;-75
2023/03/07 01:01:36;;;;;;;1.08;0.20;;;18.60;59.00;;;;;;5029551;28;20544;-75
2023/03/07 01:04:03;;;;;;;1.30;0.32;;;18.50;59.00;;;;;;5030842;28;20049;-75
2023/03/07 01:06:33;;;;;;;1.15;0.30;;;18.50;59.10;;;;;;5033415;28;20059;-75
2023/03/07 01:09:00;;;;;;;;;;;18.50;59.10;;;;;;5034070;28;20056;-75
2023/03/07 01:11:29;;;;;;;1.67;0.55;;;18.50;59.00;;;;;;5052940;28;19928;-75
2023/03/07 01:13:57;;;;;;;0.90;0.20;;;18.40;59.10;;;;;;5053242;28;20049;-75
2023/03/07 01:16:25;;;;;;;1.40;0.30;;;18.40;59.00;;;;;;5052736;28;20057;-75
2023/03/07 01:18:54;;;;;;;1.33;0.60;;;18.40;59.00;;;;;;5053422;28;20057;-75
2023/03/07 01:21:23;;;;;;;0.75;0.45;;;18.40;58.90;;;;;;5052737;28;20468;-75
2023/03/07 01:23:52;;;;;;;0.85;0.20;;;18.50;59.00;;;;;;5032741;28;20045;-75
2023/03/07 01:26:21;;;;;;;0.93;0.20;;;18.50;59.00;;;;;;5032935;28;20042;-75
2023/03/07 01:28:49;;;;;;;0.80;0.20;;;18.50;58.90;;;;;;5032900;28;20061;-75
2023/03/07 01:31:16;;;;;;;0.70;0.20;;;18.60;58.90;;;;;;5033142;28;20060;-75
2023/03/07 01:33:43;;;;;;;1.52;0.40;;;18.60;58.80;;;;;;5048282;28;20064;-75
2023/03/07 01:36:18;;;;;;;1.48;0.20;;;18.70;58.70;;;;;;5048233;28;20049;-75
2023/03/07 01:38:45;;;;;;;1.00;0.30;;;18.70;58.60;;;;;;5048210;28;20092;-75
2023/03/07 01:41:13;;;;;;;0.63;0.10;;;18.80;58.50;;;;;;5048305;28;20082;-75
2023/03/07 01:43:41;;;;;;;0.98;0.40;;;18.80;58.40;;;;;;5031267;28;20049;-75
2023/03/07 01:46:33;;;;;;;0.80;0.20;;;18.90;58.90;;;;;;5048144;28;20513;-75
2023/03/07 01:49:03;;;;;;;0.68;0.10;;;19.00;58.00;;;;;;5048206;28;20057;-75
2023/03/07 01:51:31;;;;;;;0.60;0.20;;;19.10;58.00;;;;;;5038645;28;20070;-75
2023/03/07 01:54:00;;;;;;;0.77;0.20;;;19.20;57.90;;;;;;5051345;28;20060;-75
2023/03/07 01:56:30;;;;;;;0.90;0.20;;;19.20;57.80;;;;;;5032560;28;20515;-75
2023/03/07 01:58:57;;;;;;;2.33;0.20;;;19.30;57.70;;;;;;5045157;28;20065;-75
2023/03/07 02:01:27;;;;;;;1.63;0.17;;;19.30;57.70;;;;;;5031009;28;20107;-75
2023/03/07 02:03:58;;;;;;;0.90;0.22;;;19.20;57.60;;;;;;5044037;28;20080;-75
2023/03/07 02:06:27;;;;;;;1.25;0.30;;;19.30;57.70;;;;;;5052427;28;20047;-75
2023/03/07 02:08:56;;;;;;;0.60;0.17;;;19.20;57.60;;;;;;5051046;28;20081;-75
2023/03/07 02:11:23;;;;;;;0.90;0.15;;;19.30;57.70;;;;;;5050762;28;20141;-75
2023/03/07 02:13:51;;;;;;;0.80;0.20;;;19.20;57.70;;;;;;5051632;28;20049;-76
2023/03/07 02:16:19;;;;;;;1.02;0.30;;;19.20;57.80;;;;;;5051458;28;20053;-75
2023/03/07 02:18:49;;;;;;;0.82;0.10;;;19.10;57.80;;;;;;5052101;28;20049;-75
2023/03/07 02:21:25;;;;;;;1.10;0.20;;;19.10;57.80;;;;;;5052058;28;20061;-75
2023/03/07 02:23:59;;;;;;;1.13;0.30;;;19.10;57.80;;;;;;5050486;28;20568;-75
2023/03/07 02:26:40;;;;;;;1.15;0.17;;;19.10;57.90;;;;;;5048870;28;20064;-75
2023/03/07 02:29:08;;;;;;;0.80;0.10;;;19.00;57.90;;;;;;5033871;28;20516;-75
2023/03/07 02:31:34;;;;;;;0.95;0.32;;;19.00;58.00;;;;;;5051831;28;20045;-76
2023/03/07 02:34:01;;;;;;;1.48;0.20;;;19.00;58.00;;;;;;5051567;28;20494;-75
2023/03/07 02:36:32;;;;;;;0.70;0.10;;;18.90;58.00;;;;;;5051781;28;20049;-75
2023/03/07 02:39:01;;;;;;;0.73;0.20;;;18.90;58.00;;;;;;5051887;28;20073;-75
2023/03/07 02:41:31;;;;;;;0.63;0.20;;;18.90;58.10;;;;;;5051786;28;20452;-75
2023/03/07 02:43:59;;;;;;;0.77;0.30;;;18.80;58.10;;;;;;5050292;28;20478;-75
2023/03/07 02:46:26;;;;;;;1.25;0.38;;;18.80;58.20;;;;;;5050351;28;20521;-75
2023/03/07 02:48:53;;;;;;;0.88;0.17;;;18.70;58.10;;;;;;5039968;28;20488;-75
2023/03/07 02:51:20;;;;;;;0.70;0.10;;;18.70;58.20;;;;;;5033669;28;20049;-75
2023/03/07 02:53:47;;;;;;;0.60;0.10;;;18.70;58.20;;;;;;5035490;28;20060;-75
2023/03/07 02:56:14;;;;;;;1.00;0.20;;;18.60;58.20;;;;;;5031606;28;20045;-76
2023/03/07 02:58:41;;;;;;;0.90;0.13;;;18.60;58.20;;;;;;5031928;28;20521;-75
2023/03/07 03:01:10;;;;;;;1.20;0.30;;;18.50;58.20;;;;;;5043206;28;20052;-75
2023/03/07 03:03:37;;;;;;;1.95;0.30;;;18.60;58.40;;;;;;5040567;28;20049;-75
2023/03/07 03:06:05;;;;;;;1.75;0.40;;;18.50;58.40;;;;;;5036932;28;20056;-75
2023/03/07 03:08:32;;;;;;;1.35;0.20;;;18.50;58.40;;;;;;5030332;28;20064;-75
2023/03/07 03:10:59;;;;;;;0.60;0.20;;;18.50;58.50;;;;;;5039216;28;20044;-76
2023/03/07 03:13:26;;;;;;;1.60;0.30;;;18.40;58.50;;;;;;5049530;28;20055;-76
2023/03/07 03:15:55;;;;;;;1.20;0.52;;;18.40;58.50;;;;;;5049937;28;20508;-75
2023/03/07 03:18:24;;;;;;;1.23;0.50;;;18.40;58.50;;;;;;5049512;28;20490;-75
2023/03/07 03:20:51;;;;;;;0.82;0.25;;;18.40;58.50;;;;;;5049555;28;20052;-75
2023/03/07 03:23:18;;;;;;;1.50;0.30;;;18.40;58.40;;;;;;5031127;28;20073;-75
2023/03/07 03:25:45;;;;;;;1.13;0.20;;;18.40;58.40;;;;;;5028846;28;20060;-75
2023/03/07 03:28:12;;;;;;;0.85;0.15;;;18.50;58.40;;;;;;5029666;28;20060;-75
2023/03/07 03:30:39;;;;;;;0.60;0.10;;;18.50;58.40;;;;;;5030704;28;20049;-75
2023/03/07 03:33:06;;;;;;;1.23;0.22;;;18.50;58.20;;;;;;5031019;28;20046;-76
2023/03/07 03:35:34;;;;;;;0.68;0.13;;;18.60;58.20;;;;;;5030914;28;20053;-75
2023/03/07 03:38:01;;;;;;;1.00;0.20;;;18.60;58.10;;;;;;5030550;28;20053;-75
2023/03/07 03:40:29;;;;;;;2.35;0.40;;;18.70;58.00;;;;;;5029235;28;20049;-75
2023/03/07 03:42:56;;;;;;;2.30;0.20;;;18.70;57.80;;;;;;5030166;28;20495;-75
2023/03/07 03:45:22;;;;;;;1.33;0.22;;;18.80;57.70;;;;;;5042132;28;20060;-75
2023/03/07 03:47:49;;;;;;;1.17;0.20;;;18.80;57.70;;;;;;5036666;28;20053;-76
2023/03/07 03:50:17;;;;;;;1.60;0.30;;;18.90;57.50;;;;;;5030509;28;20046;-75
2023/03/07 03:52:45;;;;;;;1.13;0.22;;;19.00;57.40;;;;;;5029293;28;20060;-75
2023/03/07 03:55:12;;;;;;;1.23;0.13;;;19.10;57.30;;;;;;5029267;28;20143;-75
2023/03/07 03:57:39;;;;;;;0.90;0.20;;;19.10;57.10;;;;;;5030281;28;20049;-75
2023/03/07 04:00:09;;;;;;;1.27;0.13;;;19.20;57.00;;;;;;5030645;28;20060;-75
2023/03/07 04:02:36;;;;;;;1.33;0.32;;;19.30;57.00;;;;;;5030272;28;20077;-75
2023/03/07 04:05:04;;;;;;;1.98;0.25;;;19.30;56.80;;;;;;5029155;28;20049;-75
2023/03/07 04:07:30;;;;;;;1.85;0.20;;;19.30;56.80;;;;;;5028826;28;20049;-76
2023/03/07 04:09:59;;;;;;;0.57;0.20;;;19.30;56.80;;;;;;5036325;28;20093;-75
2023/03/07 04:12:26;;;;;;;2.40;0.47;;;19.30;56.70;;;;;;5050226;28;20045;-75
2023/03/07 04:14:53;;;;;;;1.45;0.35;;;19.30;56.90;;;;;;5050073;28;20429;-75
2023/03/07 04:17:20;;;;;;;2.03;0.40;;;19.20;56.80;;;;;;5050484;28;20057;-75
2023/03/07 04:19:47;;;;;;;2.10;0.22;;;19.20;56.90;;;;;;5049784;28;20049;-75
2023/03/07 04:22:14;;;;;;;1.30;0.22;;;19.20;56.90;;;;;;5049871;28;20060;-75
2023/03/07 04:24:41;;;;;;;1.38;0.20;;;19.10;56.90;;;;;;5048141;28;20049;-75
2023/03/07 04:27:09;;;;;;;0.95;0.10;;;19.10;56.90;;;;;;5048816;28;20049;-75
2023/03/07 04:29:36;;;;;;;1.73;0.30;;;19.00;57.00;;;;;;5048617;28;20449;-75
2023/03/07 04:32:03;;;;;;;1.15;0.20;;;19.00;57.00;;;;;;5041399;28;20052;-75
2023/03/07 04:34:30;;;;;;;1.30;0.77;;;19.00;57.10;;;;;;5049987;28;20063;-75
2023/03/07 04:36:57;;;;;;;1.95;0.20;;;18.90;56.90;;;;;;5049270;28;20059;-75
2023/03/07 04:39:24;;;;;;;1.17;0.30;;;18.90;57.00;;;;;;5054167;28;20055;-75
2023/03/07 04:41:51;;;;;;;1.40;0.20;;;18.90;57.10;;;;;;5052771;28;20068;-75
2023/03/07 04:44:20;;;;;;;2.22;0.10;;;18.90;57.10;;;;;;5053673;28;20056;-75
2023/03/07 04:46:46;;;;;;;2.10;0.20;;;18.80;57.10;;;;;;5040171;28;20136;-75
2023/03/07 04:49:13;;;;;;;0.85;0.20;;;18.80;57.20;;;;;;5052313;28;20041;-76
2023/03/07 04:51:40;;;;;;;2.00;0.22;;;18.70;57.10;;;;;;5033582;28;20528;-75
2023/03/07 04:54:07;;;;;;;1.52;0.22;;;18.70;57.10;;;;;;5033724;28;20065;-75
2023/03/07 04:56:34;;;;;;;1.85;0.20;;;18.70;57.10;;;;;;5033616;28;20061;-75
2023/03/07 04:59:01;;;;;;;1.73;0.20;;;18.60;57.10;;;;;;5033700;28;20053;-75
2023/03/07 05:01:29;;;;;;;1.83;0.20;;;18.60;57.20;;;;;;5049071;28;20053;-75
2023/03/07 05:03:56;;;;;;;2.00;0.20;;;18.50;57.20;;;;;;5035846;28;20050;-76
2023/03/07 05:06:23;;;;;;;1.30;0.20;;;18.50;57.20;;;;;;5053602;28;20049;-76
2023/03/07 05:08:50;;;;;;;1.00;0.20;;;18.50;57.30;;;;;;5051035;28;20071;-75
2023/03/07 05:11:18;;;;;;;1.05;0.10;;;18.50;57.40;;;;;;5033560;28;20053;-75
2023/03/07 05:13:45;;;;;;;0.70;0.10;;;18.40;57.30;;;;;;5039555;28;20076;-76
2023/03/07 05:16:12;;;;;;;1.70;0.30;;;18.40;57.30;;;;;;5047538;28;20524;-75
2023/03/07 05:18:40;;;;;;;1.45;0.22;;;18.40;57.20;;;;;;5034353;28;20057;-76
2023/03/07 05:21:07;;;;;;;2.10;0.30;;;18.40;57.20;;;;;;5035111;28;20478;-75
2023/03/07 05:23:34;;;;;;;1.70;0.35;;;18.40;57.20;;;;;;5039706;28;20048;-75
2023/03/07 05:26:01;;;;;;;1.17;0.20;;;18.40;57.10;;;;;;5047122;28;20045;-75
2023/03/07 05:28:28;;;;;;;1.38;0.15;;;18.50;57.10;;;;;;5053027;28;20060;-75
2023/03/07 05:30:55;;;;;;;1.73;0.25;;;18.50;57.00;;;;;;5048797;28;20438;-75
2023/03/07 05:33:22;;;;;;;1.55;0.30;;;18.50;56.90;;;;;;5031984;28;20057;-75
2023/03/07 05:35:50;;;;;;;2.90;0.10;;;18.60;56.80;;;;;;5032703;28;20502;-76
2023/03/07 05:38:17;;;;;;;2.97;0.25;;;18.60;56.70;;;;;;5032838;28;20045;-75
2023/03/07 05:40:44;;;;;;;0.93;0.20;;;18.70;56.60;;;;;;5046992;28;20102;-75
2023/03/07 05:43:11;;;;;;;1.17;0.30;;;18.70;56.50;;;;;;5051643;28;20498;-76
2023/03/07 05:45:38;;;;;;;1.00;0.20;;;18.80;56.30;;;;;;5044867;28;20049;-75
2023/03/07 05:48:05;;;;;;;1.20;0.20;;;18.90;56.20;;;;;;5052961;28;20057;-75
2023/03/07 05:50:32;;;;;;;1.77;0.22;;;19.00;56.10;;;;;;5051290;28;20057;-76
2023/03/07 05:53:00;;;;;;;1.50;0.25;;;19.10;56.00;;;;;;5051947;28;20053;-76
2023/03/07 05:55:27;;;;;;;1.00;0.20;;;19.10;55.80;;;;;;5053400;28;20076;-75
2023/03/07 05:57:54;;;;;;;1.20;0.30;;;19.20;55.80;;;;;;5053128;28;20053;-75
2023/03/07 06:00:22;;;;;;;2.05;0.10;;;19.20;55.70;;;;;;5037004;28;20046;-75
2023/03/07 06:02:49;;;;;;;1.65;0.30;;;19.20;55.60;;;;;;5032830;28;20080;-75
2023/03/07 06:05:16;;;;;;;2.10;0.20;;;19.30;55.60;;;;;;5031326;28;20053;-75
2023/03/07 06:07:43;;;;;;;1.38;0.15;;;19.30;55.50;;;;;;5032564;28;20049;-75
2023/03/07 06:10:12;;;;;;;2.08;0.20;;;19.30;55.50;;;;;;5038968;28;20140;-75
2023/03/07 06:12:39;;;;;;;1.20;0.38;;;19.20;55.50;;;;;;5050986;28;20143;-75
2023/03/07 06:15:08;;;;;;;1.92;0.30;;;19.20;55.60;;;;;;5052377;28;20044;-75
2023/03/07 06:17:35;;;;;;;1.05;0.25;;;19.20;55.60;;;;;;5051083;28;20049;-75
2023/03/07 06:20:03;;;;;;;1.42;0.30;;;19.10;55.60;;;;;;5050702;28;20060;-75
2023/03/07 06:22:30;;;;;;;0.85;0.20;;;19.10;55.70;;;;;;5050690;28;20060;-75
2023/03/07 06:24:57;;;;;;;0.88;0.30;;;19.10;55.70;;;;;;5049702;28;20502;-75
2023/03/07 06:27:26;;;;;;;1.33;0.20;;;19.00;55.70;;;;;;5050734;28;20409;-76
2023/03/07 06:29:53;;;;;;;1.95;0.28;;;19.00;55.80;;;;;;5051346;28;20057;-75
2023/03/07 06:32:19;;;;;;;1.17;0.20;;;19.00;55.80;;;;;;5050012;28;20049;-75
2023/03/07 06:34:46;;;;;;;1.85;0.10;;;18.90;55.80;;;;;;5050107;28;20064;-76
2023/03/07 06:37:14;;;;;;;2.63;0.30;;;18.90;55.90;;;;;;5047266;28;20042;-76
2023/03/07 06:39:41;;;;;;;1.40;0.13;;;18.80;55.90;;;;;;5051490;28;20060;-76
2023/03/07 06:42:08;;;;;;;1.42;0.20;;;18.80;56.00;;;;;;5051385;28;20067;-76
2023/03/07 06:44:36;;;;;;;0.80;0.15;;;18.80;56.00;;;;;;5032145;28;20047;-75
2023/03/07 06:47:03;;;;;;;2.05;0.22;;;18.70;55.90;;;;;;5030436;28;20056;-76
2023/03/07 06:49:30;;;;;;;1.88;0.47;;;18.70;56.00;;;;;;5049691;28;20048;-76
2023/03/07 06:51:57;;;;;;;0.98;0.10;;;18.70;56.00;;;;;;5034989;28;20179;-75
2023/03/07 06:54:24;;;;;;;1.55;0.20;;;18.70;56.10;;;;;;5031659;28;20107;-76
2023/03/07 06:56:51;;;;;;;1.73;0.17;;;18.60;56.10;;;;;;5047864;28;20052;-76
2023/03/07 06:59:18;;;;;;;0.60;0.10;;;18.60;56.20;;;;;;5047033;28;20049;-69
2023/03/07 07:01:47;;;;;;;2.22;0.10;;;18.60;56.30;;;;;;5040027;28;20050;-68
2023/03/07 07:04:14;;;;;;;1.27;0.20;;;18.50;56.30;;;;;;5030543;28;20495;-69
2023/03/07 07:06:41;;;;;;;0.88;0.15;;;18.50;56.40;;;;;;5032732;28;20056;-70
2023/03/07 07:09:11;;;;;;;1.35;0.32;;;18.50;56.60;;;;;;5048184;28;20052;-71
2023/03/07 07:11:38;;;;;;;1.00;0.22;;;18.40;56.50;;;;;;5031331;28;20514;-69
2023/03/07 07:14:05;;;;;;;2.00;0.30;;;18.50;56.70;;;;;;5031366;28;20046;-70
2023/03/07 07:16:35;;;;;;;1.15;0.20;;;18.40;56.70;;;;;;5046711;28;20674;-70
2023/03/07 07:19:03;;;;;;;1.70;0.15;;;18.40;56.70;;;;;;5048154;28;20052;-74
2023/03/07 07:21:30;;;;;;;0.90;0.30;;;18.40;56.70;;;;;;5048015;28;20048;-74
2023/03/07 07:23:58;;;;;;;2.75;0.15;;;18.40;56.70;;;;;;5046719;28;20577;-74
2023/03/07 07:26:25;;;;;;;1.05;0.20;;;18.50;56.70;;;;;;5049713;28;20041;-73
2023/03/07 07:28:52;;;;;;;3.17;0.10;;;18.50;56.70;;;;;;5048849;28;20049;-73
2023/03/07 07:31:19;;;;;;;1.98;0.20;;;18.50;56.70;;;;;;5050110;28;20075;-73
2023/03/07 07:33:46;;;;;;;1.13;0.10;;;18.60;56.60;;;;;;5044388;28;20038;-73
2023/03/07 07:36:14;;;;;;;1.95;0.20;;;18.60;56.50;;;;;;5031221;28;20049;-74
2023/03/07 07:38:41;;;;;;;2.10;0.28;;;18.70;56.40;;;;;;5044093;28;20045;-73
2023/03/07 07:41:08;;;;;;;0.95;0.00;;;18.70;56.30;;;;;;5048080;28;20052;-74
2023/03/07 07:43:35;;;;;;;1.23;0.30;;;18.80;56.20;;;;;;5050550;28;20060;-74
2023/03/07 07:46:03;;;;;;;1.05;0.10;;;18.80;56.10;;;;;;5047479;28;20057;-73
2023/03/07 07:48:31;;;;;;;1.17;0.20;;;18.90;56.00;;;;;;5029257;28;20045;-74
2023/03/07 07:51:00;;;;;;;0.70;0.10;;;19.00;55.90;;;;;;5029340;28;20072;-74
2023/03/07 07:53:29;;;;;;;2.22;0.63;;;19.00;55.70;;;;;;5034686;28;20075;-74
2023/03/07 07:55:56;;;;;;;0.80;0.10;;;19.20;56.40;;;;;;5033577;28;20064;-73
2023/03/07 07:58:23;;;;;;;1.58;0.28;;;19.20;55.60;;;;;;5037367;28;20102;-73
2023/03/07 08:00:50;;;;;;;0.98;0.10;;;19.30;55.50;;;;;;5032213;28;21023;-73
2023/03/07 08:03:17;;;;;;;1.02;0.20;;;19.20;55.40;;;;;;5030581;28;20057;-73
2023/03/07 08:05:46;;;;;;;0.82;0.10;;;19.30;55.40;;;;;;5029558;28;20598;-74
2023/03/07 08:08:13;;;;;;;;;;;19.20;55.40;;;;;;5031123;28;20100;-74
2023/03/07 08:10:43;;;;;;;0.80;0.10;;;19.20;55.40;;;;;;5030297;28;19952;-74
2023/03/07 08:13:12;;;;;;;1.50;0.10;;;19.20;55.40;;;;;;5030050;28;20150;-74
2023/03/07 08:15:40;;;;;;;1.38;0.40;;;19.20;55.50;;;;;;5043419;28;20089;-74
2023/03/07 08:18:07;;;;;;;1.40;0.10;;;19.20;55.60;;;;;;5049174;28;20037;-74
2023/03/07 08:20:36;;;;;;;2.15;0.25;;;19.10;55.60;;;;;;5048829;28;20049;-74
2023/03/07 08:23:04;;;;;;;1.52;0.10;;;19.10;55.60;;;;;;5046957;28;20064;-74
2023/03/07 08:25:31;;;;;;;0.50;0.10;;;19.10;55.70;;;;;;5030207;28;20490;-73
2023/03/07 08:28:02;;;;;;;1.58;0.20;;;19.10;56.50;;;;;;5030269;28;20042;-74
2023/03/07 08:30:31;;;;;;;1.70;0.20;;;19.00;55.80;;;;;;5029194;28;20049;-74
2023/03/07 08:32:58;;;;;;;1.20;0.22;;;19.00;55.90;;;;;;5030265;28;20129;-74
2023/03/07 08:35:27;;;;;;;1.05;0.20;;;19.00;55.90;;;;;;5029040;28;20057;-73
2023/03/07 08:37:55;;;;;;;1.50;0.10;;;18.90;55.90;;;;;;5031086;28;20069;-74
2023/03/07 08:40:24;;;;;;;1.55;0.20;;;18.90;56.00;;;;;;5030056;28;20061;-74
2023/03/07 08:42:53;;;;;;;1.60;0.10;;;18.80;56.00;;;;;;5032985;28;20056;-74
2023/03/07 08:45:22;;;;;;;1.10;0.20;;;18.80;56.00;;;;;;5047657;28;20057;-73
2023/03/07 08:47:51;;;;;;;1.52;0.40;;;18.80;56.10;;;;;;5049878;28;20057;-74
2023/03/07 08:50:18;;;;;;;0.98;0.20;;;18.80;56.10;;;;;;5044934;28;20055;-73
2023/03/07 08:52:45;;;;;;;1.85;0.20;;;18.80;56.10;;;;;;5029327;28;20056;-74
2023/03/07 08:55:12;;;;;;;0.70;0.25;;;18.70;56.10;;;;;;5030586;28;20045;-74
2023/03/07 08:57:40;;;;;;;0.80;0.00;;;18.70;56.20;;;;;;5048350;28;20053;-73
2023/03/07 09:00:11;;;;;;;1.33;0.20;;;18.70;56.20;;;;;;5049611;28;20057;-73
2023/03/07 09:02:40;;;;;;;1.20;0.10;;;18.60;56.20;;;;;;5046173;28;20560;-74
2023/03/07 09:05:07;;;;;;;1.42;0.10;;;18.60;56.20;;;;;;5047434;28;20049;-73
2023/03/07 09:07:34;;;;;;;0.60;0.10;;;18.60;56.30;;;;;;5047726;28;20061;-73
2023/03/07 09:10:01;;;;;;;1.23;0.20;;;18.60;56.30;;;;;;5048984;28;20072;-73
2023/03/07 09:12:28;;;;;;;1.67;0.20;;;18.50;56.20;;;;;;5047927;28;20079;-74
2023/03/07 09:14:55;;;;;;;1.88;0.20;;;18.50;56.20;;;;;;5048819;28;20171;-73
2023/03/07 09:17:22;;;;;;;0.88;0.20;;;18.40;56.20;;;;;;5049821;28;20053;-73
2023/03/07 09:19:50;;;;;;;1.30;0.30;;;18.40;56.20;;;;;;5049436;28;20088;-74
2023/03/07 09:22:17;;;;;;;1.85;0.15;;;18.40;56.30;;;;;;5049390;28;20426;-73
2023/03/07 09:24:44;;;;;;;1.08;0.10;;;18.40;56.20;;;;;;5050024;28;20052;-73
2023/03/07 09:27:11;;;;;;;0.80;0.10;;;18.40;56.20;;;;;;5053322;28;20049;-73
2023/03/07 09:29:38;;;;;;;1.13;0.30;;;18.40;56.20;;;;;;5045204;28;20064;-73
2023/03/07 09:32:05;;;;;;;1.52;0.20;;;18.50;56.30;;;;;;5035311;28;20060;-74
2023/03/07 09:34:32;;;;;;;0.95;0.10;;;18.50;56.20;;;;;;5033334;28;20041;-74
2023/03/07 09:37:00;;;;;;;0.85;0.10;;;18.50;56.20;;;;;;5032859;28;20529;-73
2023/03/07 09:39:27;;;;;;;0.43;0.10;;;18.60;56.10;;;;;;5032702;28;20387;-74
2023/03/07 09:41:59;;;;;;;1.38;0.05;;;18.60;56.00;;;;;;5033067;28;20045;-74
2023/03/07 09:44:45;;;;;;;1.10;0.10;;;18.70;56.00;;;;;;5032938;28;20050;-73
2023/03/07 09:47:30;;;;;;;2.67;0.10;;;18.70;55.90;;;;;;5045040;28;20514;-73
2023/03/07 09:50:00;;;;;;;0.60;0.10;;;18.80;55.80;;;;;;5051693;28;20057;-73
2023/03/07 09:52:33;;;;;;;1.02;0.13;;;18.90;55.70;;;;;;5052398;28;20048;-73
2023/03/07 09:55:01;;;;;;;0.75;0.10;;;19.00;55.60;;;;;;5052722;28;20068;-73
2023/03/07 09:57:31;;;;;;;0.70;0.10;;;19.10;55.50;;;;;;5052235;28;20451;-73
2023/03/07 10:00:04;;;;;;;1.48;0.20;;;19.20;55.40;;;;;;5042312;28;20045;-73
2023/03/07 10:02:36;;;;;;;1.30;0.10;;;19.20;55.20;;;;;;5045703;28;20422;-73
2023/03/07 10:05:11;;;;;;;1.65;0.22;;;19.30;55.20;;;;;;5039556;28;20069;-73
2023/03/07 10:07:40;;;;;;;1.30;0.20;;;19.30;55.20;;;;;;5050564;28;20045;-73
2023/03/07 10:10:12;;;;;;;0.47;0.10;;;19.40;55.10;;;;;;5050217;28;20413;-73
2023/03/07 10:12:51;;;;;;;1.60;0.20;;;19.40;55.10;;;;;;5033572;28;20124;-73
2023/03/07 10:15:31;;;;;;;1.45;0.20;;;19.30;55.80;;;;;;5031227;28;20379;-74
2023/03/07 10:18:21;;;;;;;0.93;0.50;;;19.30;55.10;;;;;;5032911;28;20049;-74
2023/03/07 10:20:52;;;;;;;0.93;0.15;;;19.30;55.10;;;;;;5032105;28;20064;-73
2023/03/07 10:23:35;;;;;;;1.30;0.20;;;19.30;56.00;;;;;;5034474;28;20057;-74
2023/03/07 10:26:09;;;;;;;1.35;0.10;;;19.20;55.20;;;;;;5051430;28;20521;-73
2023/03/07 10:28:39;;;;;;;1.27;0.10;;;19.20;55.40;;;;;;5052471;28;20430;-74
2023/03/07 10:31:16;;;;;;;0.88;0.10;;;19.20;55.50;;;;;;5052095;28;20045;-74
2023/03/07 10:33:46;;;;;;;1.35;0.10;;;19.20;55.50;;;;;;5048734;28;20975;-74
2023/03/07 10:36:15;;;;;;;;;;;19.10;55.50;;;;;;5032338;28;20049;-74
2023/03/07 10:38:54;;;;;;;0.85;0.20;;;19.10;55.50;;;;;;5033282;28;19936;-73
2023/03/07 10:41:22;;;;;;;1.95;0.10;;;19.10;55.60;;;;;;5037314;28;20056;-73
2023/03/07 10:43:51;;;;;;;2.03;0.10;;;19.00;55.70;;;;;;5050776;28;20398;-73
2023/03/07 10:46:20;;;;;;;1.00;0.10;;;19.00;55.80;;;;;;5051915;28;20410;-73
2023/03/07 10:48:50;;;;;;;2.05;0.15;;;19.00;55.80;;;;;;5047926;28;20046;-73
2023/03/07 10:51:35;;;;;;;1.58;0.17;;;18.90;55.70;;;;;;5031850;28;20056;-74
2023/03/07 10:54:05;;;;;;;1.85;0.20;;;18.90;55.80;;;;;;5030878;28;20079;-74
2023/03/07 10:56:32;;;;;;;1.48;0.10;;;18.90;55.80;;;;;;5037734;28;20053;-74
2023/03/07 10:59:02;;;;;;;1.80;0.17;;;18.90;55.90;;;;;;5038613;28;20064;-74
2023/03/07 11:01:30;;;;;;;0.95;0.20;;;18.90;56.00;;;;;;5040037;28;20958;-73
2023/03/07 11:04:00;;;;;;;0.70;0.10;;;18.80;56.00;;;;;;5050591;28;20060;-74
2023/03/07 11:06:34;;;;;;;1.30;0.20;;;18.80;56.10;;;;;;5049943;28;20041;-74
2023/03/07 11:09:15;;;;;;;1.10;0.28;;;18.80;56.10;;;;;;5040270;28;20060;-74
2023/03/07 11:11:48;;;;;;;0.80;0.30;;;18.80;56.10;;;;;;5032026;28;20073;-73
2023/03/07 11:14:16;;;;;;;1.17;0.10;;;18.70;56.00;;;;;;5044748;28;20080;-72
2023/03/07 11:16:49;;;;;;;1.58;0.40;;;18.70;56.10;;;;;;5039217;28;20080;-75
2023/03/07 11:19:38;;;;;;;0.90;0.13;;;18.70;56.20;;;;;;5039835;28;20482;-71
2023/03/07 11:22:16;;;;;;;2.15;0.28;;;18.70;56.30;;;;;;5051094;28;20065;-70
2023/03/07 11:24:51;;;;;;;1.38;0.10;;;18.70;56.30;;;;;;5035404;28;20049;-70
2023/03/07 11:27:22;;;;;;;1.83;0.20;;;18.70;56.30;;;;;;5043822;28;20081;-70
2023/03/07 11:30:16;;;;;;;3.22;0.15;;;18.70;56.40;;;;;;5050792;28;20577;-71
2023/03/07 11:32:49;;;;;;;1.15;0.10;;;18.70;56.30;;;;;;5049084;28;20476;-70
2023/03/07 11:35:21;;;;;;;2.03;0.20;;;18.70;56.30;;;;;;5041874;28;20067;-70
2023/03/07 11:37:57;;;;;;;1.42;0.20;;;18.70;56.30;;;;;;5049456;28;20056;-71
2023/03/07 11:40:28;;;;;;;2.42;0.30;;;18.80;56.50;;;;;;5043874;28;20060;-71
2023/03/07 11:43:05;;;;;;;1.50;0.10;;;18.70;56.40;;;;;;5038634;28;20053;-72
2023/03/07 11:45:39;;;;;;;0.88;0.10;;;18.70;56.50;;;;;;5038731;28;20053;-76
2023/03/07 11:48:23;;;;;;;1.30;0.25;;;18.80;57.20;;;;;;5041816;28;20056;-72
2023/03/07 11:50:56;;;;;;;1.35;0.30;;;18.80;56.60;;;;;;5037956;28;20115;-70
2023/03/07 11:53:42;;;;;;;2.05;0.20;;;18.80;56.60;;;;;;5049267;28;20049;-70
2023/03/07 11:56:25;;;;;;;1.10;0.20;;;18.80;56.70;;;;;;5029882;28;20491;-69
2023/03/07 11:59:39;;;;;;;1.48;0.20;;;18.90;56.70;;;;;;5037035;28;20418;-69
2023/03/07 12:02:28;;;;;;;1.10;0.10;;;18.80;56.80;;;;;;5034516;28;20060;-69
2023/03/07 12:05:09;;;;;;;0.73;0.10;;;18.90;56.80;;;;;;5049009;28;20045;-74
2023/03/07 12:08:01;;;;;;;1.77;0.20;;;18.90;56.80;;;;;;5044798;28;20136;-72
2023/03/07 12:10:44;;;;;;;1.77;0.30;;;18.90;56.90;;;;;;5049222;28;20049;-73
2023/03/07 12:13:23;;;;;;;1.02;0.35;;;18.90;56.90;;;;;;5050154;28;20048;-72
2023/03/07 12:15:59;;;;;;;1.48;0.20;;;18.90;56.90;;;;;;5047496;28;20060;-73
2023/03/07 12:18:54;;;;;;;1.65;0.20;;;18.90;57.00;;;;;;5031286;28;20064;-72
2023/03/07 12:21:46;;;;;;;1.17;0.13;;;18.90;57.10;;;;;;5037159;28;20459;-72
2023/03/07 12:24:19;;;;;;;1.20;0.20;;;18.90;57.10;;;;;;5036705;28;20065;-72
2023/03/07 12:26:53;;;;;;;0.65;0.10;;;18.80;57.10;;;;;;5040917;28;20042;-74
2023/03/07 12:29:32;;;;;;;1.55;0.17;;;18.80;57.20;;;;;;5043908;28;20052;-74
2023/03/07 12:32:04;;;;;;;1.48;0.30;;;18.80;57.20;;;;;;5038587;28;20455;-74
2023/03/07 12:34:37;;;;;;;1.40;0.15;;;18.70;57.20;;;;;;5029023;28;20052;-74
2023/03/07 12:37:08;;;;;;;1.98;0.32;;;18.70;57.20;;;;;;5031491;28;20054;-74
2023/03/07 12:39:46;;;;;;;1.70;0.30;;;18.70;57.30;;;;;;5048361;28;20049;-74
2023/03/07 12:42:18;;;;;;;1.38;0.13;;;18.70;57.30;;;;;;5045585;28;20108;-74
2023/03/07 12:44:50;;;;;;;1.83;0.22;;;18.70;57.30;;;;;;5043087;28;20049;-74
2023/03/07 12:47:23;;;;;;;0.88;0.15;;;18.70;57.30;;;;;;5028771;28;20160;-74
2023/03/07 12:49:56;;;;;;;0.75;0.20;;;18.70;57.30;;;;;;5037743;28;20482;-74
2023/03/07 12:52:34;;;;;;;1.02;0.10;;;18.70;57.30;;;;;;5029657;28;20061;-74
2023/03/07 12:55:08;;;;;;;1.60;0.35;;;18.80;57.30;;;;;;5029898;28;20056;-74
2023/03/07 12:57:42;;;;;;;1.13;0.10;;;18.80;57.30;;;;;;5029274;28;20125;-74
2023/03/07 13:00:14;;;;;;;1.50;0.20;;;18.80;57.20;;;;;;5031920;28;20045;-74